sensor_id;sensor_type;location;lat;lon;timestamp;pressure;altitude;pressure_sealevel;temperature
8533;BMP280;4304;53.876;10.662;2022-07-05T00:00:06;115735.44;;;-139.81
8533;BMP280;4304;53.876;10.662;2022-07-05T00:02:31;115735.44;;;-139.81
8533;BMP280;4304;53.876;10.662;2022-07-05T00:04:57;115735.44;;;-139.81
8533;BMP280;4304;53.876;10.662;2022-07-05T00:07:22;115735.44;;;-139.81
8533;BMP280;4304;53.876;10.662;2022-07-05T00:09:51;115735.44;;;-139.81
8533;BMP280;4304;53.876;10.662;2022-07-05T00:12:18;115735.44;;;-139.81
8533;BMP280;4304;53.876;10.662;2022-07-05T00:14:45;115735.44;;;-139.81
8533;BMP280;4304;53.876;10.662;2022-07-05T00:17:11;115735.44;;;-139.81
8533;BMP280;4304;53.876;10.662;2022-07-05T00:19:37;115735.44;;;-139.81
8533;BMP280;4304;53.876;10.662;2022-07-05T00:22:03;115735.44;;;-139.81
8533;BMP280;4304;53.876;10.662;2022-07-05T00:24:29;115735.44;;;-139.81
8533;BMP280;4304;53.876;10.662;2022-07-05T00:26:54;115735.44;;;-139.81
8533;BMP280;4304;53.876;10.662;2022-07-05T00:29:20;115735.44;;;-139.81
8533;BMP280;4304;53.876;10.662;2022-07-05T00:31:45;115735.44;;;-139.81
8533;BMP280;4304;53.876;10.662;2022-07-05T00:34:10;115735.44;;;-139.81
8533;BMP280;4304;53.876;10.662;2022-07-05T00:36:36;115735.44;;;-139.81
8533;BMP280;4304;53.876;10.662;2022-07-05T00:39:02;115735.44;;;-139.81
8533;BMP280;4304;53.876;10.662;2022-07-05T00:41:27;115735.44;;;-139.81
8533;BMP280;4304;53.876;10.662;2022-07-05T00:43:54;115735.44;;;-139.81
8533;BMP280;4304;53.876;10.662;2022-07-05T00:46:20;115735.44;;;-139.81
8533;BMP280;4304;53.876;10.662;2022-07-05T00:48:45;115735.44;;;-139.81
8533;BMP280;4304;53.876;10.662;2022-07-05T00:51:11;115735.44;;;-139.81
8533;BMP280;4304;53.876;10.662;2022-07-05T00:53:36;115735.44;;;-139.81
8533;BMP280;4304;53.876;10.662;2022-07-05T00:56:02;115735.44;;;-139.81
8533;BMP280;4304;53.876;10.662;2022-07-05T00:58:28;115735.44;;;-139.81
8533;BMP280;4304;53.876;10.662;2022-07-05T01:00:53;115735.44;;;-139.81
8533;BMP280;4304;53.876;10.662;2022-07-05T01:03:19;115475.81;;;-139.81
8533;BMP280;4304;53.876;10.662;2022-07-05T01:05:44;115735.44;;;-139.81
8533;BMP280;4304;53.876;10.662;2022-07-05T01:08:12;115735.44;;;-139.81
8533;BMP280;4304;53.876;10.662;2022-07-05T01:10:38;115475.81;;;-139.81
8533;BMP280;4304;53.876;10.662;2022-07-05T01:13:05;115475.81;;;-139.81
8533;BMP280;4304;53.876;10.662;2022-07-05T01:15:31;115475.81;;;-139.81
8533;BMP280;4304;53.876;10.662;2022-07-05T01:17:56;115475.81;;;-139.81
8533;BMP280;4304;53.876;10.662;2022-07-05T01:20:22;115475.81;;;-139.81
8533;BMP280;4304;53.876;10.662;2022-07-05T01:22:55;115475.81;;;-139.81
8533;BMP280;4304;53.876;10.662;2022-07-05T01:25:22;115475.81;;;-139.81
8533;BMP280;4304;53.876;10.662;2022-07-05T01:27:48;115475.81;;;-139.81
8533;BMP280;4304;53.876;10.662;2022-07-05T01:30:14;115475.81;;;-139.81
8533;BMP280;4304;53.876;10.662;2022-07-05T01:32:40;115475.81;;;-139.81
8533;BMP280;4304;53.876;10.662;2022-07-05T01:35:07;115475.81;;;-139.81
8533;BMP280;4304;53.876;10.662;2022-07-05T01:37:33;115475.81;;;-139.81
8533;BMP280;4304;53.876;10.662;2022-07-05T01:40:01;115475.81;;;-139.81
8533;BMP280;4304;53.876;10.662;2022-07-05T01:42:27;115475.81;;;-139.81
8533;BMP280;4304;53.876;10.662;2022-07-05T01:44:52;115475.81;;;-139.81
8533;BMP280;4304;53.876;10.662;2022-07-05T01:47:18;115475.81;;;-139.81
8533;BMP280;4304;53.876;10.662;2022-07-05T01:49:45;115475.81;;;-139.81
8533;BMP280;4304;53.876;10.662;2022-07-05T01:52:12;115475.81;;;-139.81
8533;BMP280;4304;53.876;10.662;2022-07-05T01:54:38;115475.81;;;-139.81
8533;BMP280;4304;53.876;10.662;2022-07-05T01:57:05;115475.81;;;-139.81
8533;BMP280;4304;53.876;10.662;2022-07-05T01:59:34;115475.81;;;-139.81
8533;BMP280;4304;53.876;10.662;2022-07-05T02:02:00;115475.81;;;-139.81
8533;BMP280;4304;53.876;10.662;2022-07-05T02:04:25;115475.81;;;-139.81
8533;BMP280;4304;53.876;10.662;2022-07-05T02:06:51;115475.81;;;-139.81
8533;BMP280;4304;53.876;10.662;2022-07-05T02:09:16;115475.81;;;-139.81
8533;BMP280;4304;53.876;10.662;2022-07-05T02:11:42;115475.81;;;-139.81
8533;BMP280;4304;53.876;10.662;2022-07-05T02:14:07;115475.81;;;-139.81
8533;BMP280;4304;53.876;10.662;2022-07-05T02:16:33;115475.81;;;-139.81
8533;BMP280;4304;53.876;10.662;2022-07-05T02:18:58;115475.81;;;-139.81
8533;BMP280;4304;53.876;10.662;2022-07-05T02:21:24;115475.81;;;-139.81
8533;BMP280;4304;53.876;10.662;2022-07-05T02:23:50;115475.81;;;-139.81
8533;BMP280;4304;53.876;10.662;2022-07-05T02:26:15;115475.81;;;-139.81
8533;BMP280;4304;53.876;10.662;2022-07-05T02:28:41;115475.81;;;-139.81
8533;BMP280;4304;53.876;10.662;2022-07-05T02:31:07;115475.81;;;-139.81
8533;BMP280;4304;53.876;10.662;2022-07-05T02:33:32;115216.22;;;-139.81
8533;BMP280;4304;53.876;10.662;2022-07-05T02:36:13;115475.81;;;-139.81
8533;BMP280;4304;53.876;10.662;2022-07-05T02:38:39;115475.81;;;-139.81
8533;BMP280;4304;53.876;10.662;2022-07-05T02:41:09;115475.81;;;-139.81
8533;BMP280;4304;53.876;10.662;2022-07-05T02:43:36;115216.22;;;-139.81
8533;BMP280;4304;53.876;10.662;2022-07-05T02:46:02;115216.22;;;-139.81
8533;BMP280;4304;53.876;10.662;2022-07-05T02:48:28;115475.81;;;-139.81
8533;BMP280;4304;53.876;10.662;2022-07-05T02:50:53;115216.22;;;-139.81
8533;BMP280;4304;53.876;10.662;2022-07-05T02:53:19;115216.22;;;-139.81
8533;BMP280;4304;53.876;10.662;2022-07-05T02:55:44;115216.22;;;-139.81
8533;BMP280;4304;53.876;10.662;2022-07-05T02:58:09;115216.22;;;-139.81
8533;BMP280;4304;53.876;10.662;2022-07-05T03:00:35;115216.22;;;-139.81
8533;BMP280;4304;53.876;10.662;2022-07-05T03:03:00;115216.22;;;-139.81
8533;BMP280;4304;53.876;10.662;2022-07-05T03:05:26;115216.22;;;-139.81
8533;BMP280;4304;53.876;10.662;2022-07-05T03:07:52;115216.22;;;-139.81
8533;BMP280;4304;53.876;10.662;2022-07-05T03:10:17;115216.22;;;-139.81
8533;BMP280;4304;53.876;10.662;2022-07-05T03:12:42;115216.22;;;-139.81
8533;BMP280;4304;53.876;10.662;2022-07-05T03:15:08;115216.22;;;-139.81
8533;BMP280;4304;53.876;10.662;2022-07-05T03:17:34;115216.22;;;-139.81
8533;BMP280;4304;53.876;10.662;2022-07-05T03:19:59;115216.22;;;-139.81
8533;BMP280;4304;53.876;10.662;2022-07-05T03:22:25;115216.22;;;-139.81
8533;BMP280;4304;53.876;10.662;2022-07-05T03:24:50;115216.22;;;-139.81
8533;BMP280;4304;53.876;10.662;2022-07-05T03:27:16;115216.22;;;-139.81
8533;BMP280;4304;53.876;10.662;2022-07-05T03:29:41;115216.22;;;-139.81
8533;BMP280;4304;53.876;10.662;2022-07-05T03:32:07;115216.22;;;-139.81
8533;BMP280;4304;53.876;10.662;2022-07-05T03:34:32;115216.22;;;-139.81
8533;BMP280;4304;53.876;10.662;2022-07-05T03:36:57;115475.81;;;-139.81
8533;BMP280;4304;53.876;10.662;2022-07-05T03:39:23;115475.81;;;-139.81
8533;BMP280;4304;53.876;10.662;2022-07-05T03:41:48;115475.81;;;-139.81
8533;BMP280;4304;53.876;10.662;2022-07-05T03:44:13;115475.81;;;-139.81
8533;BMP280;4304;53.876;10.662;2022-07-05T03:46:39;115475.81;;;-139.81
8533;BMP280;4304;53.876;10.662;2022-07-05T03:49:04;115475.81;;;-139.81
8533;BMP280;4304;53.876;10.662;2022-07-05T03:51:29;115475.81;;;-139.81
8533;BMP280;4304;53.876;10.662;2022-07-05T03:53:55;115475.81;;;-139.81
8533;BMP280;4304;53.876;10.662;2022-07-05T03:56:20;115475.81;;;-139.81
8533;BMP280;4304;53.876;10.662;2022-07-05T03:58:48;115735.44;;;-139.81
8533;BMP280;4304;53.876;10.662;2022-07-05T04:01:14;115735.44;;;-139.81
8533;BMP280;4304;53.876;10.662;2022-07-05T04:03:40;115735.44;;;-139.81
8533;BMP280;4304;53.876;10.662;2022-07-05T04:06:05;115735.44;;;-139.81
8533;BMP280;4304;53.876;10.662;2022-07-05T04:08:31;115735.44;;;-139.81
8533;BMP280;4304;53.876;10.662;2022-07-05T04:10:56;115735.44;;;-139.81
8533;BMP280;4304;53.876;10.662;2022-07-05T04:13:21;115735.44;;;-139.81
8533;BMP280;4304;53.876;10.662;2022-07-05T04:15:47;115735.44;;;-139.81
8533;BMP280;4304;53.876;10.662;2022-07-05T04:18:12;115735.44;;;-139.81
8533;BMP280;4304;53.876;10.662;2022-07-05T04:20:37;115735.44;;;-139.81
8533;BMP280;4304;53.876;10.662;2022-07-05T04:23:03;115735.44;;;-139.81
8533;BMP280;4304;53.876;10.662;2022-07-05T04:25:29;115735.44;;;-139.81
8533;BMP280;4304;53.876;10.662;2022-07-05T04:27:55;115735.44;;;-139.81
8533;BMP280;4304;53.876;10.662;2022-07-05T04:30:22;115735.44;;;-139.81
8533;BMP280;4304;53.876;10.662;2022-07-05T04:32:48;115735.44;;;-139.81
8533;BMP280;4304;53.876;10.662;2022-07-05T04:35:14;115735.44;;;-139.81
8533;BMP280;4304;53.876;10.662;2022-07-05T04:37:40;115995.09;;;-139.81
8533;BMP280;4304;53.876;10.662;2022-07-05T04:40:07;115995.09;;;-139.81
8533;BMP280;4304;53.876;10.662;2022-07-05T04:42:33;115995.09;;;-139.81
8533;BMP280;4304;53.876;10.662;2022-07-05T04:44:58;115995.09;;;-139.81
8533;BMP280;4304;53.876;10.662;2022-07-05T04:47:24;115995.09;;;-139.81
8533;BMP280;4304;53.876;10.662;2022-07-05T04:49:53;115995.09;;;-139.81
8533;BMP280;4304;53.876;10.662;2022-07-05T04:52:19;115995.09;;;-139.81
8533;BMP280;4304;53.876;10.662;2022-07-05T04:54:44;115995.09;;;-139.81
8533;BMP280;4304;53.876;10.662;2022-07-05T04:57:09;116254.75;;;-139.81
8533;BMP280;4304;53.876;10.662;2022-07-05T04:59:35;116254.75;;;-139.81
8533;BMP280;4304;53.876;10.662;2022-07-05T05:02:00;116254.75;;;-139.81
8533;BMP280;4304;53.876;10.662;2022-07-05T05:04:26;116254.75;;;-139.81
8533;BMP280;4304;53.876;10.662;2022-07-05T05:06:51;116254.75;;;-139.81
8533;BMP280;4304;53.876;10.662;2022-07-05T05:09:17;116254.75;;;-139.81
8533;BMP280;4304;53.876;10.662;2022-07-05T05:11:42;116254.75;;;-139.81
8533;BMP280;4304;53.876;10.662;2022-07-05T05:14:07;116254.75;;;-139.81
8533;BMP280;4304;53.876;10.662;2022-07-05T05:16:33;116254.75;;;-139.81
8533;BMP280;4304;53.876;10.662;2022-07-05T05:18:58;116514.44;;;-139.81
8533;BMP280;4304;53.876;10.662;2022-07-05T05:21:24;116774.16;;;-139.81
8533;BMP280;4304;53.876;10.662;2022-07-05T05:23:49;117033.91;;;-139.81
8533;BMP280;4304;53.876;10.662;2022-07-05T05:26:14;117033.91;;;-139.81
8533;BMP280;4304;53.876;10.662;2022-07-05T05:28:40;117033.91;;;-139.81
8533;BMP280;4304;53.876;10.662;2022-07-05T05:31:06;117293.66;;;-139.81
8533;BMP280;4304;53.876;10.662;2022-07-05T05:33:31;117293.66;;;-139.81
8533;BMP280;4304;53.876;10.662;2022-07-05T05:35:57;117293.66;;;-139.81
8533;BMP280;4304;53.876;10.662;2022-07-05T05:38:22;117293.66;;;-139.81
8533;BMP280;4304;53.876;10.662;2022-07-05T05:40:48;117293.66;;;-139.81
8533;BMP280;4304;53.876;10.662;2022-07-05T05:43:13;117293.66;;;-139.81
8533;BMP280;4304;53.876;10.662;2022-07-05T05:45:38;117295.69;;;-139.81
8533;BMP280;4304;53.876;10.662;2022-07-05T05:48:04;117293.66;;;-139.81
8533;BMP280;4304;53.876;10.662;2022-07-05T05:50:35;117293.66;;;-139.81
8533;BMP280;4304;53.876;10.662;2022-07-05T05:53:01;117293.66;;;-139.81
8533;BMP280;4304;53.876;10.662;2022-07-05T05:55:28;117033.91;;;-139.81
8533;BMP280;4304;53.876;10.662;2022-07-05T05:57:54;117033.91;;;-139.81
8533;BMP280;4304;53.876;10.662;2022-07-05T06:00:20;117033.91;;;-139.81
8533;BMP280;4304;53.876;10.662;2022-07-05T06:02:48;117033.91;;;-139.81
8533;BMP280;4304;53.876;10.662;2022-07-05T06:05:14;117033.91;;;-139.81
8533;BMP280;4304;53.876;10.662;2022-07-05T06:07:48;117033.91;;;-139.81
8533;BMP280;4304;53.876;10.662;2022-07-05T06:10:22;116774.16;;;-139.81
8533;BMP280;4304;53.876;10.662;2022-07-05T06:12:49;116774.16;;;-139.81
8533;BMP280;4304;53.876;10.662;2022-07-05T06:15:15;116774.16;;;-139.81
8533;BMP280;4304;53.876;10.662;2022-07-05T06:17:41;116774.16;;;-139.81
8533;BMP280;4304;53.876;10.662;2022-07-05T06:20:08;116774.16;;;-139.81
8533;BMP280;4304;53.876;10.662;2022-07-05T06:22:34;116774.16;;;-139.81
8533;BMP280;4304;53.876;10.662;2022-07-05T06:24:59;116774.16;;;-139.81
8533;BMP280;4304;53.876;10.662;2022-07-05T06:27:25;116774.16;;;-139.81
8533;BMP280;4304;53.876;10.662;2022-07-05T06:29:50;116774.16;;;-139.81
8533;BMP280;4304;53.876;10.662;2022-07-05T06:32:15;116774.16;;;-139.81
8533;BMP280;4304;53.876;10.662;2022-07-05T06:34:40;116774.16;;;-139.81
8533;BMP280;4304;53.876;10.662;2022-07-05T06:37:06;116774.16;;;-139.81
8533;BMP280;4304;53.876;10.662;2022-07-05T06:39:31;116774.16;;;-139.81
8533;BMP280;4304;53.876;10.662;2022-07-05T06:41:59;116774.16;;;-139.81
8533;BMP280;4304;53.876;10.662;2022-07-05T06:44:24;116774.16;;;-139.81
8533;BMP280;4304;53.876;10.662;2022-07-05T06:46:49;117033.91;;;-139.81
8533;BMP280;4304;53.876;10.662;2022-07-05T06:49:15;117033.91;;;-139.81
8533;BMP280;4304;53.876;10.662;2022-07-05T06:51:40;117033.91;;;-139.81
8533;BMP280;4304;53.876;10.662;2022-07-05T06:54:05;117033.91;;;-139.81
8533;BMP280;4304;53.876;10.662;2022-07-05T06:56:30;117033.91;;;-139.81
8533;BMP280;4304;53.876;10.662;2022-07-05T06:58:56;117033.91;;;-139.81
8533;BMP280;4304;53.876;10.662;2022-07-05T07:01:21;117033.91;;;-139.81
8533;BMP280;4304;53.876;10.662;2022-07-05T07:03:48;117033.91;;;-139.81
8533;BMP280;4304;53.876;10.662;2022-07-05T07:06:14;117033.91;;;-139.81
8533;BMP280;4304;53.876;10.662;2022-07-05T07:08:39;117033.91;;;-139.81
8533;BMP280;4304;53.876;10.662;2022-07-05T07:11:23;116774.16;;;-139.81
8533;BMP280;4304;53.876;10.662;2022-07-05T07:13:48;117033.91;;;-139.81
8533;BMP280;4304;53.876;10.662;2022-07-05T07:16:13;117033.91;;;-139.81
8533;BMP280;4304;53.876;10.662;2022-07-05T07:18:39;117033.91;;;-139.81
8533;BMP280;4304;53.876;10.662;2022-07-05T07:21:04;117033.91;;;-139.81
8533;BMP280;4304;53.876;10.662;2022-07-05T07:23:30;117033.91;;;-139.81
8533;BMP280;4304;53.876;10.662;2022-07-05T07:25:55;117033.91;;;-139.81
8533;BMP280;4304;53.876;10.662;2022-07-05T07:28:21;117033.91;;;-139.81
8533;BMP280;4304;53.876;10.662;2022-07-05T07:30:46;117293.66;;;-139.81
8533;BMP280;4304;53.876;10.662;2022-07-05T07:33:11;117033.91;;;-139.81
8533;BMP280;4304;53.876;10.662;2022-07-05T07:35:37;117033.91;;;-139.81
8533;BMP280;4304;53.876;10.662;2022-07-05T07:38:02;117033.91;;;-139.81
8533;BMP280;4304;53.876;10.662;2022-07-05T07:40:27;117033.91;;;-139.81
8533;BMP280;4304;53.876;10.662;2022-07-05T07:42:53;117033.91;;;-139.81
8533;BMP280;4304;53.876;10.662;2022-07-05T07:45:18;117033.91;;;-139.81
8533;BMP280;4304;53.876;10.662;2022-07-05T07:47:43;117033.91;;;-139.81
8533;BMP280;4304;53.876;10.662;2022-07-05T07:50:09;117033.91;;;-139.81
8533;BMP280;4304;53.876;10.662;2022-07-05T07:52:35;117033.91;;;-139.81
8533;BMP280;4304;53.876;10.662;2022-07-05T07:55:02;117033.91;;;-139.81
8533;BMP280;4304;53.876;10.662;2022-07-05T07:57:27;117293.66;;;-139.81
8533;BMP280;4304;53.876;10.662;2022-07-05T07:59:53;117293.66;;;-139.81
8533;BMP280;4304;53.876;10.662;2022-07-05T08:02:18;117293.66;;;-139.81
8533;BMP280;4304;53.876;10.662;2022-07-05T08:04:46;117293.66;;;-139.81
8533;BMP280;4304;53.876;10.662;2022-07-05T08:07:12;117293.66;;;-139.81
8533;BMP280;4304;53.876;10.662;2022-07-05T08:09:37;117293.66;;;-139.81
8533;BMP280;4304;53.876;10.662;2022-07-05T08:12:03;117295.69;;;-139.81
8533;BMP280;4304;53.876;10.662;2022-07-05T08:14:30;117295.69;;;-139.81
8533;BMP280;4304;53.876;10.662;2022-07-05T08:16:55;117295.69;;;-139.81
8533;BMP280;4304;53.876;10.662;2022-07-05T08:19:20;117295.69;;;-139.81
8533;BMP280;4304;53.876;10.662;2022-07-05T08:22:05;117293.66;;;-139.81
8533;BMP280;4304;53.876;10.662;2022-07-05T08:24:32;117295.69;;;-139.81
8533;BMP280;4304;53.876;10.662;2022-07-05T08:26:58;117295.69;;;-139.81
8533;BMP280;4304;53.876;10.662;2022-07-05T08:29:23;117295.69;;;-139.81
8533;BMP280;4304;53.876;10.662;2022-07-05T08:31:50;117293.66;;;-139.81
8533;BMP280;4304;53.876;10.662;2022-07-05T08:34:17;117293.66;;;-139.81
8533;BMP280;4304;53.876;10.662;2022-07-05T08:36:45;117293.66;;;-139.81
8533;BMP280;4304;53.876;10.662;2022-07-05T08:39:11;117293.66;;;-139.81
8533;BMP280;4304;53.876;10.662;2022-07-05T08:41:40;117295.69;;;-139.81
8533;BMP280;4304;53.876;10.662;2022-07-05T08:44:06;117295.69;;;-139.81
8533;BMP280;4304;53.876;10.662;2022-07-05T08:46:32;117295.69;;;-139.81
8533;BMP280;4304;53.876;10.662;2022-07-05T08:49:02;117295.69;;;-139.81
8533;BMP280;4304;53.876;10.662;2022-07-05T08:51:32;117295.69;;;-139.81
8533;BMP280;4304;53.876;10.662;2022-07-05T08:53:58;117295.69;;;-139.81
8533;BMP280;4304;53.876;10.662;2022-07-05T08:56:24;117295.69;;;-139.81
8533;BMP280;4304;53.876;10.662;2022-07-05T08:58:49;117295.69;;;-139.81
8533;BMP280;4304;53.876;10.662;2022-07-05T09:01:15;117295.69;;;-139.81
8533;BMP280;4304;53.876;10.662;2022-07-05T09:03:47;117295.69;;;-139.81
8533;BMP280;4304;53.876;10.662;2022-07-05T09:06:16;117295.69;;;-139.81
8533;BMP280;4304;53.876;10.662;2022-07-05T09:08:42;117295.69;;;-139.81
8533;BMP280;4304;53.876;10.662;2022-07-05T09:11:11;117293.66;;;-139.81
8533;BMP280;4304;53.876;10.662;2022-07-05T09:13:40;117293.66;;;-139.81
8533;BMP280;4304;53.876;10.662;2022-07-05T09:16:06;117293.66;;;-139.81
8533;BMP280;4304;53.876;10.662;2022-07-05T09:18:47;117293.66;;;-139.81
8533;BMP280;4304;53.876;10.662;2022-07-05T09:21:16;117293.66;;;-139.81
8533;BMP280;4304;53.876;10.662;2022-07-05T09:23:43;117293.66;;;-139.81
8533;BMP280;4304;53.876;10.662;2022-07-05T09:26:09;117293.66;;;-139.81
8533;BMP280;4304;53.876;10.662;2022-07-05T09:28:35;117293.66;;;-139.81
8533;BMP280;4304;53.876;10.662;2022-07-05T09:31:00;117293.66;;;-139.81
8533;BMP280;4304;53.876;10.662;2022-07-05T09:33:26;117293.66;;;-139.81
8533;BMP280;4304;53.876;10.662;2022-07-05T09:35:53;117295.69;;;-139.81
8533;BMP280;4304;53.876;10.662;2022-07-05T09:38:23;117295.69;;;-139.81
8533;BMP280;4304;53.876;10.662;2022-07-05T09:40:51;117295.69;;;-139.81
8533;BMP280;4304;53.876;10.662;2022-07-05T09:43:19;117295.69;;;-139.81
8533;BMP280;4304;53.876;10.662;2022-07-05T09:45:58;117295.69;;;-139.81
8533;BMP280;4304;53.876;10.662;2022-07-05T09:48:25;117295.69;;;-139.81
8533;BMP280;4304;53.876;10.662;2022-07-05T09:50:50;117295.69;;;-139.81
8533;BMP280;4304;53.876;10.662;2022-07-05T09:53:18;117295.69;;;-139.81
8533;BMP280;4304;53.876;10.662;2022-07-05T09:55:59;117295.69;;;-139.81
8533;BMP280;4304;53.876;10.662;2022-07-05T09:58:26;117295.69;;;-139.81
8533;BMP280;4304;53.876;10.662;2022-07-05T10:00:51;117295.69;;;-139.81
8533;BMP280;4304;53.876;10.662;2022-07-05T10:03:17;117295.69;;;-139.81
8533;BMP280;4304;53.876;10.662;2022-07-05T10:05:42;117295.69;;;-139.81
8533;BMP280;4304;53.876;10.662;2022-07-05T10:08:08;117295.69;;;-139.81
8533;BMP280;4304;53.876;10.662;2022-07-05T10:10:34;117295.69;;;-139.81
8533;BMP280;4304;53.876;10.662;2022-07-05T10:13:02;117295.69;;;-139.81
8533;BMP280;4304;53.876;10.662;2022-07-05T10:15:31;117295.69;;;-139.81
8533;BMP280;4304;53.876;10.662;2022-07-05T10:17:59;117295.69;;;-139.81
8533;BMP280;4304;53.876;10.662;2022-07-05T10:23:05;117295.69;;;-139.81
8533;BMP280;4304;53.876;10.662;2022-07-05T10:25:31;117295.69;;;-139.81
8533;BMP280;4304;53.876;10.662;2022-07-05T10:27:59;117295.69;;;-139.81
8533;BMP280;4304;53.876;10.662;2022-07-05T10:30:26;117295.69;;;-139.81
8533;BMP280;4304;53.876;10.662;2022-07-05T10:32:51;117295.69;;;-139.81
8533;BMP280;4304;53.876;10.662;2022-07-05T10:35:18;117295.69;;;-139.81
8533;BMP280;4304;53.876;10.662;2022-07-05T10:37:44;117295.69;;;-139.81
8533;BMP280;4304;53.876;10.662;2022-07-05T10:40:10;117295.69;;;-139.81
8533;BMP280;4304;53.876;10.662;2022-07-05T10:42:42;117295.69;;;-139.81
8533;BMP280;4304;53.876;10.662;2022-07-05T10:45:29;117295.69;;;-139.81
8533;BMP280;4304;53.876;10.662;2022-07-05T10:48:20;117295.69;;;-139.81
8533;BMP280;4304;53.876;10.662;2022-07-05T10:53:16;117295.69;;;-139.81
8533;BMP280;4304;53.876;10.662;2022-07-05T10:55:58;117295.69;;;-139.81
8533;BMP280;4304;53.876;10.662;2022-07-05T11:03:38;117295.69;;;-139.81
8533;BMP280;4304;53.876;10.662;2022-07-05T11:06:07;117295.69;;;-139.81
8533;BMP280;4304;53.876;10.662;2022-07-05T11:13:53;117295.69;;;-139.81
8533;BMP280;4304;53.876;10.662;2022-07-05T11:16:27;117295.69;;;-139.81
8533;BMP280;4304;53.876;10.662;2022-07-05T11:21:29;117295.69;;;-139.81
8533;BMP280;4304;53.876;10.662;2022-07-05T11:26:48;117295.69;;;-139.81
8533;BMP280;4304;53.876;10.662;2022-07-05T11:29:48;117295.69;;;-139.81
8533;BMP280;4304;53.876;10.662;2022-07-05T11:32:35;117295.69;;;-139.81
8533;BMP280;4304;53.876;10.662;2022-07-05T11:35:15;117295.69;;;-139.81
8533;BMP280;4304;53.876;10.662;2022-07-05T11:38:07;117295.69;;;-139.81
8533;BMP280;4304;53.876;10.662;2022-07-05T11:40:38;117295.69;;;-139.81
8533;BMP280;4304;53.876;10.662;2022-07-05T11:43:04;117295.69;;;-139.81
8533;BMP280;4304;53.876;10.662;2022-07-05T11:45:32;117295.69;;;-139.81
8533;BMP280;4304;53.876;10.662;2022-07-05T11:47:57;117295.69;;;-139.81
8533;BMP280;4304;53.876;10.662;2022-07-05T11:50:28;117295.69;;;-139.81
8533;BMP280;4304;53.876;10.662;2022-07-05T11:52:54;117295.69;;;-139.81
8533;BMP280;4304;53.876;10.662;2022-07-05T11:55:19;117295.69;;;-139.81
8533;BMP280;4304;53.876;10.662;2022-07-05T11:57:49;117295.69;;;-139.81
8533;BMP280;4304;53.876;10.662;2022-07-05T12:00:28;117295.69;;;-139.81
8533;BMP280;4304;53.876;10.662;2022-07-05T12:02:55;117295.69;;;-139.81
8533;BMP280;4304;53.876;10.662;2022-07-05T12:05:21;117295.69;;;-139.81
8533;BMP280;4304;53.876;10.662;2022-07-05T12:07:50;117295.69;;;-139.81
8533;BMP280;4304;53.876;10.662;2022-07-05T12:10:16;117295.69;;;-139.81
8533;BMP280;4304;53.876;10.662;2022-07-05T12:13:07;117295.69;;;-139.81
8533;BMP280;4304;53.876;10.662;2022-07-05T12:15:33;117295.69;;;-139.81
8533;BMP280;4304;53.876;10.662;2022-07-05T12:18:01;117295.69;;;-139.81
8533;BMP280;4304;53.876;10.662;2022-07-05T12:20:33;117295.69;;;-139.81
8533;BMP280;4304;53.876;10.662;2022-07-05T12:22:59;117295.69;;;-139.81
8533;BMP280;4304;53.876;10.662;2022-07-05T12:25:27;117295.69;;;-139.81
8533;BMP280;4304;53.876;10.662;2022-07-05T12:27:55;117295.69;;;-139.81
8533;BMP280;4304;53.876;10.662;2022-07-05T12:30:21;117295.69;;;-139.81
8533;BMP280;4304;53.876;10.662;2022-07-05T12:35:31;117295.69;;;-139.81
8533;BMP280;4304;53.876;10.662;2022-07-05T12:38:08;117295.69;;;-139.81
8533;BMP280;4304;53.876;10.662;2022-07-05T12:40:37;117295.69;;;-139.81
8533;BMP280;4304;53.876;10.662;2022-07-05T12:45:34;117295.69;;;-139.81
8533;BMP280;4304;53.876;10.662;2022-07-05T12:48:02;117295.69;;;-139.81
8533;BMP280;4304;53.876;10.662;2022-07-05T12:50:43;117295.69;;;-139.81
8533;BMP280;4304;53.876;10.662;2022-07-05T12:53:10;117295.69;;;-139.81
8533;BMP280;4304;53.876;10.662;2022-07-05T12:56:00;117295.69;;;-139.81
8533;BMP280;4304;53.876;10.662;2022-07-05T12:58:49;117295.69;;;-139.81
8533;BMP280;4304;53.876;10.662;2022-07-05T13:01:24;117295.69;;;-139.81
8533;BMP280;4304;53.876;10.662;2022-07-05T13:04:05;117295.69;;;-139.81
8533;BMP280;4304;53.876;10.662;2022-07-05T13:06:59;117295.69;;;-139.81
8533;BMP280;4304;53.876;10.662;2022-07-05T13:09:37;117295.69;;;-139.81
8533;BMP280;4304;53.876;10.662;2022-07-05T13:12:19;117293.66;;;-139.81
8533;BMP280;4304;53.876;10.662;2022-07-05T13:14:47;117293.66;;;-139.81
8533;BMP280;4304;53.876;10.662;2022-07-05T13:17:15;117293.66;;;-139.81
8533;BMP280;4304;53.876;10.662;2022-07-05T13:19:42;117293.66;;;-139.81
8533;BMP280;4304;53.876;10.662;2022-07-05T13:22:08;117293.66;;;-139.81
8533;BMP280;4304;53.876;10.662;2022-07-05T13:24:34;117295.69;;;-139.81
8533;BMP280;4304;53.876;10.662;2022-07-05T13:27:00;117295.69;;;-139.81
8533;BMP280;4304;53.876;10.662;2022-07-05T13:29:26;117295.69;;;-139.81
8533;BMP280;4304;53.876;10.662;2022-07-05T13:31:52;117295.69;;;-139.81
8533;BMP280;4304;53.876;10.662;2022-07-05T13:34:18;117295.69;;;-139.81
8533;BMP280;4304;53.876;10.662;2022-07-05T13:36:43;117293.66;;;-139.81
8533;BMP280;4304;53.876;10.662;2022-07-05T13:39:10;117293.66;;;-139.81
8533;BMP280;4304;53.876;10.662;2022-07-05T13:41:35;117293.66;;;-139.81
8533;BMP280;4304;53.876;10.662;2022-07-05T13:44:01;117293.66;;;-139.81
8533;BMP280;4304;53.876;10.662;2022-07-05T13:46:27;117293.66;;;-139.81
8533;BMP280;4304;53.876;10.662;2022-07-05T13:48:52;117293.66;;;-139.81
8533;BMP280;4304;53.876;10.662;2022-07-05T13:51:17;117293.66;;;-139.81
8533;BMP280;4304;53.876;10.662;2022-07-05T13:53:43;117293.66;;;-139.81
8533;BMP280;4304;53.876;10.662;2022-07-05T13:56:08;117293.66;;;-139.81
8533;BMP280;4304;53.876;10.662;2022-07-05T13:58:34;117293.66;;;-139.81
8533;BMP280;4304;53.876;10.662;2022-07-05T14:01:00;117293.66;;;-139.81
8533;BMP280;4304;53.876;10.662;2022-07-05T14:03:26;117293.66;;;-139.81
8533;BMP280;4304;53.876;10.662;2022-07-05T14:05:52;117293.66;;;-139.81
8533;BMP280;4304;53.876;10.662;2022-07-05T14:08:18;117293.66;;;-139.81
8533;BMP280;4304;53.876;10.662;2022-07-05T14:10:53;117293.66;;;-139.81